Time;durP1;ratioP1;P1;durP2;ratioP2;P2;SDS_P1;SDS_P2;PMS_P1;PMS_P2;Temp;Humidity;BMP_temperature;BMP_pressure;BME280_temperature;BME280_humidity;BME280_pressure;Samples;Min_cycle;Max_cycle;Signal;HPM_P1;HPM_P2
2022/05/12 00:00:26;;;;;;;9.55;2.10;;;11.70;99.90;;;;;;5009931;28;20627;-85
2022/05/12 00:02:52;;;;;;;5.13;1.83;;;11.70;99.90;;;;;;5048223;28;20071;-85
2022/05/12 00:05:19;;;;;;;6.65;2.05;;;11.70;99.90;;;;;;5047847;28;20090;-84
2022/05/12 00:07:45;;;;;;;8.20;1.90;;;11.70;99.90;;;;;;5038758;28;20045;-84
2022/05/12 00:10:15;;;;;;;7.45;2.38;;;11.70;99.90;;;;;;5028889;28;20044;-84
2022/05/12 00:12:41;;;;;;;9.52;2.13;;;11.70;99.90;;;;;;5050598;28;20049;-84
2022/05/12 00:15:13;;;;;;;7.35;2.00;;;11.70;99.90;;;;;;5025500;28;20122;-84
2022/05/12 00:17:39;;;;;;;9.25;2.15;;;11.60;99.90;;;;;;5053358;28;20033;-85
2022/05/12 00:20:05;;;;;;;6.80;1.90;;;11.60;99.90;;;;;;5012003;28;20408;-83
2022/05/12 00:22:31;;;;;;;8.38;2.05;;;11.60;99.90;;;;;;5057792;28;20037;-84
2022/05/12 00:24:57;;;;;;;8.07;2.15;;;11.50;99.90;;;;;;5055046;28;20039;-85
2022/05/12 00:27:22;;;;;;;7.55;1.90;;;11.50;99.90;;;;;;5038736;28;20041;-84
2022/05/12 00:29:48;;;;;;;6.35;1.70;;;11.50;99.90;;;;;;5043415;28;20059;-85
2022/05/12 00:32:14;;;;;;;6.13;1.80;;;11.50;99.90;;;;;;5025573;28;20043;-84
2022/05/12 00:34:39;;;;;;;8.85;1.90;;;11.50;99.90;;;;;;5035379;28;20177;-83
2022/05/12 00:37:05;;;;;;;9.50;1.88;;;11.50;99.90;;;;;;5024565;28;20143;-85
2022/05/12 00:39:31;;;;;;;7.28;2.50;;;11.40;99.90;;;;;;5041214;28;20087;-85
2022/05/12 00:41:56;;;;;;;6.13;1.70;;;11.40;99.90;;;;;;5027982;28;20036;-85
2022/05/12 00:44:22;;;;;;;5.40;1.60;;;11.30;99.90;;;;;;5028904;28;20776;-85
2022/05/12 00:46:52;;;;;;;7.05;1.67;;;11.30;99.90;;;;;;5011545;28;20064;-85
2022/05/12 00:49:36;;;;;;;6.20;1.65;;;11.30;99.90;;;;;;5029527;28;20037;-85
2022/05/12 00:52:06;;;;;;;7.93;1.73;;;11.50;99.90;;;;;;5041701;28;20039;-85
2022/05/12 00:54:41;;;;;;;6.13;1.40;;;11.20;99.90;;;;;;5040123;28;20036;-84
2022/05/12 00:57:10;;;;;;;7.00;1.70;;;11.20;99.90;;;;;;5045344;28;20404;-84
2022/05/12 00:59:36;;;;;;;5.65;1.50;;;11.20;99.90;;;;;;5053361;28;20032;-85
2022/05/12 01:02:08;;;;;;;8.30;2.10;;;11.10;99.90;;;;;;5031441;28;20036;-84
2022/05/12 01:04:34;;;;;;;5.43;1.60;;;11.10;99.90;;;;;;5038141;28;20040;-84
2022/05/12 01:07:01;;;;;;;4.75;1.40;;;11.10;99.90;;;;;;5032527;28;20425;-85
2022/05/12 01:09:28;;;;;;;4.85;1.50;;;11.10;99.90;;;;;;5022506;28;20457;-85
2022/05/12 01:11:55;;;;;;;4.90;1.42;;;11.10;99.90;;;;;;5021275;28;20047;-85
2022/05/12 01:14:21;;;;;;;7.20;1.95;;;11.00;99.90;;;;;;5048005;28;20044;-85
2022/05/12 01:16:52;;;;;;;6.80;1.60;;;11.20;99.90;;;;;;5011965;28;20043;-84
2022/05/12 01:19:21;;;;;;;6.40;1.60;;;11.00;99.90;;;;;;5041904;28;20059;-85
2022/05/12 01:21:49;;;;;;;7.43;1.70;;;11.00;99.90;;;;;;5054727;28;20052;-84
2022/05/12 01:24:17;;;;;;;8.05;1.80;;;10.90;99.90;;;;;;5046637;28;20382;-84
2022/05/12 01:26:43;;;;;;;6.65;1.70;;;10.90;99.90;;;;;;5033221;28;20056;-85
2022/05/12 01:29:09;;;;;;;4.90;1.60;;;10.90;99.90;;;;;;5044398;28;20508;-84
2022/05/12 01:31:36;;;;;;;7.43;1.60;;;10.90;99.90;;;;;;5040399;28;20505;-85
2022/05/12 01:34:04;;;;;;;4.80;1.45;;;10.90;99.90;;;;;;5035452;28;20040;-85
2022/05/12 01:36:30;;;;;;;6.75;1.60;;;10.90;99.90;;;;;;5048251;28;20183;-85
2022/05/12 01:38:56;;;;;;;4.88;1.65;;;10.80;99.90;;;;;;5040608;28;20136;-85
2022/05/12 01:41:22;;;;;;;6.53;1.67;;;10.80;99.90;;;;;;5039407;28;20259;-84
2022/05/12 01:43:48;;;;;;;5.15;1.80;;;10.80;99.90;;;;;;5048369;28;20093;-84
2022/05/12 01:46:14;;;;;;;5.53;1.70;;;10.70;99.90;;;;;;5038064;28;20035;-84
2022/05/12 01:48:39;;;;;;;10.35;2.05;;;11.40;99.90;;;;;;5062858;28;20082;-86
2022/05/12 01:51:06;;;;;;;6.00;1.80;;;10.70;99.90;;;;;;5025398;28;20482;-84
2022/05/12 01:53:31;;;;;;;8.32;1.83;;;10.80;99.90;;;;;;5052284;28;20120;-84
2022/05/12 01:55:58;;;;;;;8.65;1.98;;;11.00;99.90;;;;;;5044203;28;20162;-85
2022/05/12 01:58:25;;;;;;;7.00;1.85;;;10.60;99.90;;;;;;5050684;28;20086;-84
2022/05/12 02:00:50;;;;;;;6.85;1.80;;;10.60;99.90;;;;;;5054476;28;20202;-83
2022/05/12 02:03:16;;;;;;;5.85;1.70;;;10.50;99.90;;;;;;5038590;28;20135;-84
2022/05/12 02:05:44;;;;;;;5.63;1.67;;;10.50;99.90;;;;;;5030050;28;20047;-84
2022/05/12 02:08:11;;;;;;;7.53;1.90;;;10.60;99.90;;;;;;5038808;28;20064;-83
2022/05/12 02:10:39;;;;;;;7.82;1.90;;;10.40;99.90;;;;;;5043006;28;20610;-84
2022/05/12 02:13:07;;;;;;;6.88;1.85;;;10.40;99.90;;;;;;5050892;28;20048;-84
2022/05/12 02:15:33;;;;;;;5.00;1.70;;;10.40;99.90;;;;;;5065972;28;20040;-83
2022/05/12 02:17:59;;;;;;;7.40;1.90;;;10.40;99.90;;;;;;5032095;28;20095;-84
2022/05/12 02:20:24;;;;;;;6.88;2.17;;;10.40;99.90;;;;;;5028410;28;20482;-83
2022/05/12 02:22:50;;;;;;;6.93;1.77;;;10.30;99.90;;;;;;5020660;28;20138;-84
2022/05/12 02:25:17;;;;;;;7.07;1.90;;;10.30;99.90;;;;;;5042811;28;20058;-85
2022/05/12 02:27:45;;;;;;;7.88;2.00;;;10.30;99.90;;;;;;5043306;28;20033;-84
2022/05/12 02:30:18;;;;;;;6.85;1.73;;;10.20;99.90;;;;;;5060803;28;20417;-84
2022/05/12 02:32:44;;;;;;;10.15;2.30;;;10.20;99.90;;;;;;5040411;28;20045;-84
2022/05/12 02:35:10;;;;;;;10.07;2.42;;;10.20;99.90;;;;;;5035456;28;20044;-84
2022/05/12 02:37:35;;;;;;;8.32;2.20;;;10.20;99.90;;;;;;5040903;28;20060;-85
2022/05/12 02:40:01;;;;;;;9.20;2.58;;;10.10;99.90;;;;;;5033764;28;20060;-86
2022/05/12 02:42:27;;;;;;;8.52;2.38;;;10.10;99.90;;;;;;5029748;28;20036;-85
2022/05/12 02:44:53;;;;;;;8.18;2.28;;;10.10;99.90;;;;;;5028863;28;20032;-84
2022/05/12 02:47:19;;;;;;;8.60;2.58;;;10.20;99.90;;;;;;5035890;28;20037;-86
2022/05/12 02:49:45;;;;;;;9.77;2.50;;;10.10;99.90;;;;;;5048784;28;20493;-84
2022/05/12 02:52:11;;;;;;;9.75;2.50;;;10.20;99.90;;;;;;5038517;28;20036;-85
2022/05/12 02:54:36;;;;;;;10.00;2.63;;;10.10;99.90;;;;;;5045294;28;20071;-85
2022/05/12 02:57:03;;;;;;;10.40;2.45;;;10.00;99.90;;;;;;5047244;28;20786;-84
2022/05/12 02:59:29;;;;;;;8.52;2.72;;;10.00;99.90;;;;;;5047002;28;20029;-86
2022/05/12 03:01:55;;;;;;;11.50;2.40;;;10.10;99.90;;;;;;5042157;28;20182;-84
2022/05/12 03:04:21;;;;;;;9.93;2.95;;;11.00;99.90;;;;;;5033428;28;20135;-84
2022/05/12 03:06:47;;;;;;;10.98;3.03;;;10.00;99.90;;;;;;5047029;28;20036;-84
2022/05/12 03:09:13;;;;;;;12.35;3.13;;;10.00;99.90;;;;;;5040425;28;20040;-84
2022/05/12 03:11:39;;;;;;;12.73;3.00;;;10.00;99.90;;;;;;5029553;28;20040;-84
2022/05/12 03:14:05;;;;;;;12.40;3.15;;;9.90;99.90;;;;;;5040088;28;20068;-85
2022/05/12 03:16:31;;;;;;;13.50;3.15;;;10.00;99.90;;;;;;5021139;28;20382;-84
2022/05/12 03:18:57;;;;;;;11.13;3.35;;;10.00;99.90;;;;;;5038801;28;20039;-84
2022/05/12 03:21:23;;;;;;;8.38;2.50;;;10.00;99.90;;;;;;5044511;28;20037;-85
2022/05/12 03:23:49;;;;;;;9.35;2.78;;;10.40;99.90;;;;;;5047621;28;20055;-84
2022/05/12 03:26:16;;;;;;;11.90;3.22;;;10.00;99.90;;;;;;5039605;28;20389;-83
2022/05/12 03:28:42;;;;;;;11.60;3.45;;;10.00;99.90;;;;;;5029308;28;20032;-84
2022/05/12 03:31:08;;;;;;;11.57;3.20;;;10.00;99.90;;;;;;5035265;28;20051;-85
2022/05/12 03:33:35;;;;;;;9.95;3.13;;;10.20;99.90;;;;;;5025637;28;20037;-84
2022/05/12 03:36:01;;;;;;;12.82;3.53;;;10.00;99.90;;;;;;5035187;28;20056;-85
2022/05/12 03:38:27;;;;;;;12.63;3.30;;;10.00;99.90;;;;;;5026243;28;20526;-84
2022/05/12 03:40:53;;;;;;;10.20;3.55;;;9.90;99.90;;;;;;5039624;28;20130;-84
2022/05/12 03:46:05;;;;;;;14.30;4.15;;;10.00;99.90;;;;;;5027454;28;20109;-84
2022/05/12 03:48:31;;;;;;;10.30;3.50;;;9.90;99.90;;;;;;5055412;28;20056;-85
2022/05/12 03:50:57;;;;;;;13.02;4.13;;;9.90;99.90;;;;;;5021583;28;20040;-85
2022/05/12 03:53:25;;;;;;;11.07;4.00;;;9.90;99.90;;;;;;5029116;28;20048;-84
2022/05/12 03:55:51;;;;;;;15.73;4.50;;;10.00;99.90;;;;;;5038505;28;20039;-84
2022/05/12 03:58:17;;;;;;;11.45;4.28;;;10.00;99.90;;;;;;5025686;28;20032;-83
2022/05/12 04:00:42;;;;;;;11.77;4.25;;;10.00;99.90;;;;;;5010335;28;20713;-84
2022/05/12 04:03:08;;;;;;;11.95;3.97;;;10.00;99.90;;;;;;5045562;28;20083;-84
2022/05/12 04:05:34;;;;;;;12.18;4.13;;;10.00;99.90;;;;;;5011933;28;20033;-84
2022/05/12 04:08:00;;;;;;;12.15;3.80;;;10.00;99.90;;;;;;5008184;28;20125;-85
2022/05/12 04:10:27;;;;;;;11.68;4.10;;;10.00;99.90;;;;;;5042666;28;20045;-83
2022/05/12 04:12:53;;;;;;;15.18;4.13;;;10.10;99.90;;;;;;5065049;28;20040;-83
2022/05/12 04:15:21;;;;;;;13.93;4.25;;;10.10;99.90;;;;;;5043525;28;20123;-83
2022/05/12 04:17:59;;;;;;;10.68;4.10;;;10.10;99.90;;;;;;5039086;28;20036;-84
2022/05/12 04:20:30;;;;;;;11.75;3.85;;;10.20;99.90;;;;;;5034281;28;20081;-83
2022/05/12 04:22:56;;;;;;;12.65;3.92;;;10.20;99.90;;;;;;5049907;28;20075;-83
2022/05/12 04:25:22;;;;;;;13.98;4.20;;;10.10;99.90;;;;;;5021218;28;20040;-84
2022/05/12 04:27:48;;;;;;;13.57;4.35;;;10.20;99.90;;;;;;5019317;28;20198;-83
2022/05/12 04:30:16;;;;;;;12.15;4.25;;;10.20;99.90;;;;;;5034442;28;20593;-84
2022/05/12 04:32:43;;;;;;;19.08;4.75;;;10.30;99.90;;;;;;5037706;28;20052;-85
2022/05/12 04:35:14;;;;;;;13.75;4.72;;;10.30;99.90;;;;;;5040475;28;20039;-83
2022/05/12 04:37:51;;;;;;;15.15;4.88;;;10.30;99.90;;;;;;5044405;28;20052;-84
2022/05/12 04:40:29;;;;;;;16.23;4.70;;;10.40;99.90;;;;;;5054466;28;20041;-84
2022/05/12 04:42:58;;;;;;;12.50;4.30;;;10.50;99.90;;;;;;5045161;28;20489;-84
2022/05/12 04:45:27;;;;;;;13.95;4.40;;;10.50;99.90;;;;;;5041004;28;20037;-83
2022/05/12 04:47:53;;;;;;;15.05;4.55;;;10.60;99.90;;;;;;5046065;28;20216;-83
2022/05/12 04:50:26;;;;;;;13.00;4.72;;;10.60;99.90;;;;;;5029265;28;20277;-83
2022/05/12 04:52:52;;;;;;;13.15;4.50;;;10.70;99.90;;;;;;5037874;28;20064;-82
2022/05/12 04:55:19;;;;;;;12.15;4.47;;;10.80;99.90;;;;;;5044658;28;20604;-83
2022/05/12 04:57:47;;;;;;;13.13;4.50;;;10.80;99.90;;;;;;5053795;28;20052;-84
2022/05/12 05:00:20;;;;;;;12.65;4.40;;;10.80;99.90;;;;;;5037940;28;20101;-83
2022/05/12 05:02:46;;;;;;;13.38;4.57;;;10.90;99.90;;;;;;5053707;28;20042;-84
2022/05/12 05:05:12;;;;;;;13.27;4.63;;;10.90;99.90;;;;;;5030539;28;20036;-84
2022/05/12 05:07:39;;;;;;;13.18;4.70;;;10.90;99.90;;;;;;5025709;28;20155;-84
2022/05/12 05:10:05;;;;;;;13.25;4.68;;;11.00;99.90;;;;;;5025559;28;20037;-85
2022/05/12 05:12:31;;;;;;;12.73;4.60;;;11.00;99.90;;;;;;5048936;28;20418;-85
2022/05/12 05:14:57;;;;;;;13.90;5.13;;;11.10;99.90;;;;;;5012386;28;20051;-84
2022/05/12 05:17:24;;;;;;;13.27;4.78;;;11.20;99.90;;;;;;5056567;28;20133;-85
2022/05/12 05:19:50;;;;;;;12.35;4.90;;;11.30;99.90;;;;;;5039699;28;20195;-85
2022/05/12 05:22:16;;;;;;;12.63;4.70;;;11.30;99.90;;;;;;5039750;28;20052;-86
2022/05/12 05:24:42;;;;;;;12.85;5.43;;;11.40;99.90;;;;;;5054007;28;20037;-85
2022/05/12 05:27:09;;;;;;;11.75;4.55;;;11.50;99.90;;;;;;5047252;28;20115;-85
2022/05/12 05:29:41;;;;;;;15.50;4.65;;;11.60;99.90;;;;;;5041880;28;20132;-85
2022/05/12 05:32:12;;;;;;;13.35;4.38;;;11.70;99.90;;;;;;5044430;28;20043;-85
2022/05/12 05:34:38;;;;;;;11.48;4.30;;;11.80;99.90;;;;;;5044111;28;20044;-86
2022/05/12 05:37:04;;;;;;;12.70;4.88;;;11.80;99.90;;;;;;5038471;28;20061;-85
2022/05/12 05:39:30;;;;;;;16.30;5.15;;;11.90;99.90;;;;;;5027429;28;20037;-85
2022/05/12 05:42:01;;;;;;;13.32;4.78;;;12.00;99.90;;;;;;5043671;28;20124;-85
2022/05/12 05:44:28;;;;;;;13.73;4.55;;;12.10;99.90;;;;;;5055771;28;20037;-85
2022/05/12 05:46:54;;;;;;;12.15;4.32;;;12.20;99.90;;;;;;5032433;28;20043;-85
2022/05/12 05:49:20;;;;;;;12.80;4.40;;;12.30;99.90;;;;;;5037394;28;20037;-86
2022/05/12 05:54:31;;;;;;;10.75;4.20;;;12.50;99.90;;;;;;5047820;28;20048;-86
2022/05/12 05:56:58;;;;;;;15.95;4.93;;;12.60;99.90;;;;;;5039790;28;20080;-86
2022/05/12 05:59:23;;;;;;;12.95;4.47;;;12.70;99.90;;;;;;5024824;28;20044;-86
2022/05/12 06:01:49;;;;;;;13.05;4.05;;;12.70;99.90;;;;;;5033062;28;20503;-85
2022/05/12 06:04:17;;;;;;;11.63;4.00;;;12.80;99.90;;;;;;5036822;28;20040;-88
2022/05/12 06:06:44;;;;;;;13.18;4.20;;;12.90;99.90;;;;;;5033343;28;20037;-87
2022/05/12 06:09:12;;;;;;;11.90;3.67;;;13.00;99.90;;;;;;5046349;28;20098;-88
2022/05/12 06:11:38;;;;;;;13.38;4.45;;;13.10;99.90;;;;;;5051887;28;20056;-86
2022/05/12 06:14:04;;;;;;;14.75;4.45;;;13.20;99.90;;;;;;5048853;28;20075;-88
2022/05/12 06:16:31;;;;;;;11.73;3.70;;;13.30;99.90;;;;;;5042916;28;20075;-86
2022/05/12 06:18:57;;;;;;;10.65;3.80;;;13.40;99.90;;;;;;5035377;28;20080;-86
2022/05/12 06:21:22;;;;;;;14.63;4.10;;;13.50;99.90;;;;;;5034133;28;20072;-86
2022/05/12 06:23:48;;;;;;;11.60;3.92;;;13.60;99.90;;;;;;5027990;28;20047;-86
2022/05/12 06:26:14;;;;;;;10.80;3.35;;;13.60;99.90;;;;;;5046588;28;20611;-87
2022/05/12 06:28:47;;;;;;;11.68;3.60;;;13.70;99.90;;;;;;5030316;28;20470;-86
2022/05/12 06:31:24;;;;;;;9.75;3.35;;;13.80;99.90;;;;;;5023855;28;20051;-90
2022/05/12 06:33:53;;;;;;;13.90;3.55;;;13.80;99.90;;;;;;5046985;28;20068;-88
2022/05/12 06:36:19;;;;;;;9.65;3.25;;;14.00;99.90;;;;;;5054902;28;21140;-87
2022/05/12 06:38:47;;;;;;;13.23;3.33;;;13.90;99.90;;;;;;5048443;28;20055;-86
2022/05/12 06:41:14;;;;;;;12.73;3.10;;;14.00;99.90;;;;;;5040267;28;20084;-86
2022/05/12 06:43:45;;;;;;;11.27;3.13;;;14.10;99.90;;;;;;5037280;28;20083;-87
2022/05/12 06:46:16;;;;;;;11.27;3.67;;;14.10;99.90;;;;;;5038695;28;20094;-89
2022/05/12 06:48:43;;;;;;;10.00;3.10;;;14.20;99.90;;;;;;5052689;28;20481;-86
2022/05/12 06:51:11;;;;;;;12.90;3.72;;;14.30;99.90;;;;;;5044185;28;20052;-88
2022/05/12 06:53:38;;;;;;;9.57;2.70;;;14.30;99.90;;;;;;5039353;28;20505;-87
2022/05/12 06:56:04;;;;;;;11.60;2.65;;;14.40;99.90;;;;;;5048599;28;20362;-90
2022/05/12 06:58:29;;;;;;;11.00;2.40;;;14.50;99.90;;;;;;5029780;28;20498;-88
2022/05/12 07:00:56;;;;;;;8.80;2.55;;;14.60;99.90;;;;;;5042493;28;20047;-89
2022/05/12 07:03:22;;;;;;;10.95;2.70;;;14.70;99.90;;;;;;5028677;28;20453;-88
2022/05/12 07:05:48;;;;;;;9.40;2.33;;;14.80;99.90;;;;;;5031085;28;20069;-90
2022/05/12 07:08:14;;;;;;;10.02;2.30;;;14.80;99.90;;;;;;5040848;28;20489;-88
2022/05/12 07:10:40;;;;;;;7.80;2.30;;;14.90;99.90;;;;;;5047147;28;20041;-91
2022/05/12 07:13:06;;;;;;;7.82;2.10;;;15.00;99.90;;;;;;5048432;28;20040;-89
2022/05/12 07:15:31;;;;;;;8.73;2.20;;;15.00;99.90;;;;;;5028143;28;20032;-89
2022/05/12 07:17:59;;;;;;;7.65;2.17;;;15.10;99.90;;;;;;5034409;28;20127;-89
2022/05/12 07:28:39;;;;;;;9.85;2.33;;;15.20;99.90;;;;;;5064017;28;20504;-87
2022/05/12 07:31:09;;;;;;;9.38;2.40;;;15.30;99.90;;;;;;5058070;28;20048;-89
2022/05/12 07:33:42;;;;;;;7.28;2.20;;;15.40;99.90;;;;;;5049767;28;20493;-92
2022/05/12 07:36:20;;;;;;;9.18;2.80;;;15.50;99.90;;;;;;5047836;28;20053;-90
2022/05/12 07:38:47;;;;;;;11.70;2.65;;;15.50;99.90;;;;;;5043478;28;20068;-88
2022/05/12 07:41:14;;;;;;;11.00;2.65;;;15.60;99.90;;;;;;5039144;28;20098;-86
2022/05/12 07:43:41;;;;;;;10.05;2.60;;;15.70;99.90;;;;;;5042042;28;20032;-89
2022/05/12 07:46:08;;;;;;;9.52;2.55;;;15.80;99.90;;;;;;5046624;28;20036;-89
2022/05/12 07:48:34;;;;;;;10.38;2.60;;;15.90;99.90;;;;;;5047685;28;20127;-87
2022/05/12 07:51:00;;;;;;;9.32;2.60;;;16.70;99.90;;;;;;5047334;28;20131;-88
2022/05/12 07:53:25;;;;;;;9.07;2.30;;;16.10;99.90;;;;;;5043248;28;20400;-91
2022/05/12 07:55:51;;;;;;;8.02;2.10;;;16.10;99.90;;;;;;5011046;28;20041;-87
2022/05/12 07:58:18;;;;;;;9.05;2.38;;;16.20;99.90;;;;;;5012208;28;20651;-89
2022/05/12 08:00:43;;;;;;;6.65;1.77;;;16.20;99.90;;;;;;5052480;28;20494;-88
2022/05/12 08:03:09;;;;;;;8.98;2.00;;;16.20;99.90;;;;;;5040444;28;20052;-91
2022/05/12 08:05:36;;;;;;;9.55;2.10;;;16.20;99.90;;;;;;5041000;28;20091;-88
2022/05/12 08:08:04;;;;;;;9.02;2.47;;;16.30;99.90;;;;;;5047924;28;20078;-87
2022/05/12 08:10:30;;;;;;;13.20;2.25;;;16.40;99.90;;;;;;5042110;28;20390;-89
2022/05/12 08:12:56;;;;;;;10.18;2.28;;;16.40;99.90;;;;;;5044252;28;20032;-89
2022/05/12 08:15:25;;;;;;;9.13;2.28;;;16.50;99.90;;;;;;5046178;28;20075;-88
2022/05/12 08:17:57;;;;;;;7.15;1.88;;;16.60;99.90;;;;;;5035558;28;20136;-87
2022/05/12 08:20:24;;;;;;;10.05;2.13;;;16.70;99.90;;;;;;5031915;28;20040;-88
2022/05/12 08:22:49;;;;;;;6.63;1.90;;;16.80;99.90;;;;;;5048281;28;20090;-88
2022/05/12 08:25:16;;;;;;;8.23;1.95;;;16.60;99.90;;;;;;5028744;28;20414;-86
2022/05/12 08:27:42;;;;;;;8.43;2.20;;;16.50;99.90;;;;;;5045811;28;20037;-87
2022/05/12 08:30:11;;;;;;;8.00;2.28;;;16.40;99.90;;;;;;5055759;28;20037;-88
2022/05/12 08:32:37;;;;;;;7.63;1.80;;;16.30;99.90;;;;;;5041868;28;20036;-88
2022/05/12 08:35:04;;;;;;;10.00;1.98;;;16.20;99.90;;;;;;5032689;28;20055;-87
2022/05/12 08:37:29;;;;;;;7.65;1.80;;;16.20;99.90;;;;;;5010084;28;20049;-88
2022/05/12 08:39:56;;;;;;;7.32;1.98;;;16.30;99.90;;;;;;5070119;28;20033;-90
2022/05/12 08:42:38;;;;;;;8.18;2.00;;;16.30;99.90;;;;;;5032662;28;20123;-87
2022/05/12 08:45:06;;;;;;;9.00;1.90;;;16.40;99.90;;;;;;5055220;28;20417;-87
2022/05/12 08:47:38;;;;;;;7.00;2.00;;;16.50;99.90;;;;;;5045398;28;20040;-88
2022/05/12 08:50:07;;;;;;;8.52;1.98;;;16.60;99.90;;;;;;5048824;28;20045;-88
2022/05/12 08:52:53;;;;;;;11.80;2.13;;;16.70;99.90;;;;;;5045248;28;20219;-86
2022/05/12 08:55:40;;;;;;;9.23;2.05;;;17.00;99.90;;;;;;5047454;28;20036;-90
2022/05/12 08:58:09;;;;;;;11.40;2.13;;;17.10;99.90;;;;;;5055061;28;20045;-88
2022/05/12 09:00:51;;;;;;;9.52;1.80;;;17.30;99.90;;;;;;5050708;28;20040;-90
2022/05/12 09:03:23;;;;;;;7.57;1.80;;;17.50;99.90;;;;;;5056195;28;20060;-91
2022/05/12 09:06:03;;;;;;;8.02;1.88;;;17.60;99.90;;;;;;5040229;28;20033;-88
2022/05/12 09:08:47;;;;;;;5.57;1.80;;;17.70;99.90;;;;;;5049504;28;20033;-88
2022/05/12 09:11:20;;;;;;;8.88;2.13;;;17.70;99.90;;;;;;5058814;28;20041;-88
2022/05/12 09:13:49;;;;;;;9.40;2.00;;;17.80;99.90;;;;;;5044974;28;20451;-88
2022/05/12 09:16:26;;;;;;;9.90;2.10;;;17.90;99.90;;;;;;5043583;28;20379;-87
2022/05/12 09:18:53;;;;;;;9.57;2.22;;;17.70;99.90;;;;;;5061094;28;20033;-89
2022/05/12 09:21:29;;;;;;;7.03;1.77;;;17.80;99.90;;;;;;5049828;28;20063;-93
2022/05/12 09:23:57;;;;;;;9.68;2.10;;;17.90;99.90;;;;;;5055543;28;20540;-90
2022/05/12 09:26:44;;;;;;;8.68;2.30;;;17.90;99.90;;;;;;5060665;28;20044;-90
2022/05/12 09:29:23;;;;;;;7.95;2.10;;;17.90;99.90;;;;;;5052359;28;20068;-88
2022/05/12 09:31:54;;;;;;;7.63;1.65;;;18.10;99.90;;;;;;5052119;28;20044;-89
2022/05/12 09:34:30;;;;;;;8.88;1.90;;;18.00;99.90;;;;;;5061596;28;20101;-92
2022/05/12 09:36:56;;;;;;;7.28;1.55;;;16.80;99.90;;;;;;5052104;28;20148;-89
2022/05/12 09:39:39;;;;;;;8.32;1.77;;;17.60;99.90;;;;;;5035684;28;20036;-88
2022/05/12 09:42:27;;;;;;;8.40;1.85;;;17.40;99.90;;;;;;5051225;28;20101;-91
2022/05/12 09:44:57;;;;;;;8.98;1.77;;;17.30;99.90;;;;;;5044731;28;20040;-91
2022/05/12 09:47:23;;;;;;;10.23;2.10;;;17.30;99.90;;;;;;5050117;28;20085;-91
2022/05/12 09:49:49;;;;;;;7.63;1.85;;;17.40;99.90;;;;;;5048197;28;20068;-91
2022/05/12 09:52:39;;;;;;;9.63;2.10;;;17.50;99.90;;;;;;5059346;28;20098;-90
2022/05/12 09:55:19;;;;;;;7.10;1.60;;;17.40;99.90;;;;;;5056861;28;20541;-92
2022/05/12 09:57:53;;;;;;;6.22;1.80;;;17.20;99.90;;;;;;5038031;28;20036;-88
2022/05/12 10:00:41;;;;;;;9.73;2.20;;;17.00;99.90;;;;;;5046750;28;20385;-88
2022/05/12 10:09:27;;;;;;;7.80;1.70;;;17.00;99.90;;;;;;5062204;28;19912;-89
2022/05/12 10:11:53;;;;;;;10.10;2.20;;;17.00;99.90;;;;;;5046398;28;20043;-92
2022/05/12 10:14:49;;;;;;;8.38;1.70;;;16.90;99.90;;;;;;5053798;28;20086;-88
2022/05/12 10:17:52;;;;;;;8.48;1.80;;;16.80;99.90;;;;;;5060752;28;20052;-91
2022/05/12 10:20:23;;;;;;;8.02;1.90;;;16.90;99.90;;;;;;5038034;28;20557;-92
2022/05/12 10:23:07;;;;;;;6.85;1.60;;;17.00;99.90;;;;;;5044836;28;20047;-92
2022/05/12 10:25:59;;;;;;;8.02;1.73;;;17.30;99.90;;;;;;5050106;28;20043;-91
2022/05/12 10:28:50;;;;;;;6.70;2.00;;;17.40;99.90;;;;;;5058083;28;20152;-91
2022/05/12 10:31:38;;;;;;;9.30;1.95;;;17.20;99.90;;;;;;5052489;28;20040;-90
2022/05/12 10:34:18;;;;;;;6.53;1.73;;;17.20;99.90;;;;;;5053336;28;20385;-92
2022/05/12 10:36:44;;;;;;;8.55;1.98;;;17.50;99.90;;;;;;5059593;28;20135;-91
2022/05/12 10:39:16;;;;;;;7.88;1.83;;;17.70;99.90;;;;;;5049868;28;20139;-89
2022/05/12 10:42:22;;;;;;;7.10;1.77;;;17.60;99.90;;;;;;5056500;28;20037;-93
2022/05/12 10:45:16;;;;;;;10.20;1.98;;;17.50;99.90;;;;;;5044587;28;20486;-90
2022/05/12 10:48:01;;;;;;;5.95;1.52;;;17.60;99.90;;;;;;5062720;28;20037;-90
2022/05/12 10:50:33;;;;;;;7.95;1.80;;;17.90;99.90;;;;;;5050682;28;20309;-89
2022/05/12 10:53:39;;;;;;;5.43;1.50;;;18.00;99.90;;;;;;5044521;28;20101;-90
2022/05/12 10:56:23;;;;;;;6.07;1.48;;;18.00;99.90;;;;;;5024749;28;20055;-90
2022/05/12 10:58:51;;;;;;;8.13;1.65;;;18.20;99.90;;;;;;5059775;28;20060;-89
2022/05/12 11:01:20;;;;;;;5.78;1.75;;;18.40;99.90;;;;;;5057187;28;20076;-92
2022/05/12 11:03:57;;;;;;;7.63;1.70;;;18.30;99.90;;;;;;5045046;28;20119;-87
2022/05/12 11:06:30;;;;;;;7.28;1.80;;;18.40;99.90;;;;;;5050026;28;20032;-90
2022/05/12 11:09:19;;;;;;;5.78;1.70;;;18.50;99.90;;;;;;5042013;28;20029;-89
2022/05/12 11:11:50;;;;;;;7.35;1.85;;;18.70;99.90;;;;;;5057614;28;20045;-86
2022/05/12 11:14:33;;;;;;;9.00;1.65;;;18.90;99.90;;;;;;5040022;28;20041;-91
2022/05/12 11:17:19;;;;;;;7.25;1.70;;;19.00;99.90;;;;;;5037264;28;20055;-90
2022/05/12 11:20:19;;;;;;;10.48;1.95;;;18.90;99.90;;;;;;5046702;28;20071;-88
2022/05/12 11:23:21;;;;;;;8.75;1.65;;;18.80;99.90;;;;;;5035576;28;20460;-89
2022/05/12 11:26:00;;;;;;;8.60;1.70;;;18.80;99.90;;;;;;5043488;28;20044;-94
2022/05/12 11:32:09;;;;;;;5.13;1.50;;;18.20;99.90;;;;;;5059258;28;20037;-91
2022/05/12 11:34:37;;;;;;;5.57;1.55;;;17.80;99.90;;;;;;5028272;28;20525;-92
2022/05/12 11:37:27;;;;;;;5.53;1.40;;;17.70;99.90;;;;;;5056549;28;20060;-91
2022/05/12 11:39:55;;;;;;;8.35;1.77;;;17.60;99.90;;;;;;5055743;28;20046;-89
2022/05/12 11:42:28;;;;;;;7.65;1.70;;;17.60;99.90;;;;;;5037502;28;20537;-91
2022/05/12 11:45:04;;;;;;;6.85;1.60;;;17.80;99.90;;;;;;5048098;28;20036;-90
2022/05/12 11:47:43;;;;;;;6.55;1.60;;;17.80;99.90;;;;;;5041343;28;20036;-91
2022/05/12 11:50:33;;;;;;;5.13;1.50;;;17.60;99.90;;;;;;5046576;28;20125;-92
2022/05/12 11:53:17;;;;;;;4.38;1.30;;;17.60;99.90;;;;;;5056280;28;20032;-90
2022/05/12 11:55:58;;;;;;;4.85;1.35;;;17.40;99.90;;;;;;5051153;28;20044;-87
2022/05/12 11:58:40;;;;;;;6.78;1.50;;;17.30;99.90;;;;;;5053682;28;20060;-89
2022/05/12 12:01:10;;;;;;;4.22;1.50;;;17.40;99.90;;;;;;5042239;28;20052;-87
2022/05/12 12:03:55;;;;;;;5.63;1.50;;;17.70;99.90;;;;;;5047382;28;20099;-89
2022/05/12 12:06:41;;;;;;;8.55;1.83;;;18.10;99.90;;;;;;5047369;28;20435;-89
2022/05/12 12:09:27;;;;;;;4.50;1.48;;;18.30;99.90;;;;;;5039005;28;20041;-90
2022/05/12 12:11:53;;;;;;;4.93;1.42;;;18.50;99.90;;;;;;5038432;28;20106;-92
2022/05/12 12:14:50;;;;;;;6.60;2.00;;;18.40;99.90;;;;;;5044936;28;20127;-91
2022/05/12 12:17:25;;;;;;;7.18;1.50;;;18.30;99.90;;;;;;5044197;28;20047;-87
2022/05/12 12:19:56;;;;;;;6.78;1.77;;;18.10;99.90;;;;;;5047100;28;20052;-88
2022/05/12 12:22:35;;;;;;;7.00;1.67;;;18.00;99.90;;;;;;5040430;28;20286;-92
2022/05/12 12:25:25;;;;;;;7.38;1.77;;;18.00;99.90;;;;;;5052845;28;20051;-88
2022/05/12 12:27:55;;;;;;;5.25;1.70;;;18.10;99.90;;;;;;5037893;28;20037;-89
2022/05/12 12:30:47;;;;;;;5.35;1.70;;;18.30;99.90;;;;;;5043338;28;20112;-89
2022/05/12 12:33:18;;;;;;;6.55;1.48;;;18.70;99.90;;;;;;5036627;28;20045;-92
2022/05/12 12:36:01;;;;;;;8.38;1.65;;;19.00;99.90;;;;;;5050123;28;20051;-90
2022/05/12 12:38:48;;;;;;;7.82;1.50;;;19.00;99.90;;;;;;5034575;28;20037;-88
2022/05/12 12:41:15;;;;;;;8.05;1.88;;;18.90;99.90;;;;;;5039257;28;20040;-90
2022/05/12 12:43:48;;;;;;;9.00;1.70;;;19.00;99.90;;;;;;5043958;28;20048;-87
2022/05/12 12:46:25;;;;;;;7.85;1.90;;;19.00;99.90;;;;;;5042434;28;20032;-89
2022/05/12 12:49:07;;;;;;;4.95;1.40;;;19.20;99.90;;;;;;5034162;28;20033;-90
2022/05/12 12:51:38;;;;;;;6.05;1.63;;;19.40;99.90;;;;;;5054498;28;20045;-92
2022/05/12 12:57:13;;;;;;;4.22;1.50;;;19.50;99.90;;;;;;5053980;28;20505;-87
2022/05/12 12:59:55;;;;;;;7.82;1.60;;;19.20;99.90;;;;;;5053350;28;20151;-88
2022/05/12 13:02:40;;;;;;;8.13;1.73;;;19.20;99.90;;;;;;5039552;28;20033;-89
2022/05/12 13:05:12;;;;;;;7.68;1.60;;;19.50;99.90;;;;;;5044955;28;20491;-89
2022/05/12 13:07:40;;;;;;;6.72;1.60;;;19.50;99.90;;;;;;5053974;28;20048;-89
2022/05/12 13:10:13;;;;;;;7.53;1.85;;;19.40;99.90;;;;;;5044618;28;20041;-89
2022/05/12 13:12:38;;;;;;;7.57;1.63;;;19.30;99.90;;;;;;5039546;28;20511;-91
2022/05/12 13:15:17;;;;;;;5.60;1.42;;;19.20;99.90;;;;;;5028628;28;21385;-89
2022/05/12 13:17:49;;;;;;;7.65;1.80;;;19.00;99.90;;;;;;5050629;28;20103;-90
2022/05/12 13:20:21;;;;;;;5.75;1.55;;;18.90;99.90;;;;;;5033377;28;20048;-90
2022/05/12 13:22:54;;;;;;;5.05;1.70;;;18.80;99.90;;;;;;5046669;28;20098;-88
2022/05/12 13:25:25;;;;;;;6.75;1.75;;;19.00;99.90;;;;;;5037886;28;20031;-91
2022/05/12 13:27:51;;;;;;;7.43;1.60;;;18.90;99.90;;;;;;5041672;28;20037;-91